Airport Name : Bethel

Other Name : Bethel

ICAO : PABE

IATA : BET

FAA : PBET

Latitude : 60.779778

Longitude : -161.838

Country : United States

Local Date and Time : 03 Dec 2020 20:16

 

TAF (Terminal Aerodrome Forecast)

PABE 032320Z 0400/0424 13007KT P6SM BKN050 TEMPO 0400/0403 -SN FM042100 04007KT P6SM SCT200

 

METAR (METeorological Aerodrome Report)

PABE 040453Z 15007KT 10SM OVC085 M14/M16 A2996 RMK AO2 SLP151 T11391156

PABE 040353Z 15005KT 10SM SCT090 M15/M17 A2996 RMK AO2 SLP148 T11501167

PABE 040253Z 15006KT 10SM SCT100 M14/M15 A2995 RMK AO2 SLP145 I1000 I3000 T11391150 53004

PABE 040153Z COR 12005KT 10SM SCT100 M13/M14 A2994 RMK AO2 SLP143 T11281144

To Charter a Jet Click here.